Time;durP1;ratioP1;P1;durP2;ratioP2;P2;SDS_P1;SDS_P2;PMS_P1;PMS_P2;Temp;Humidity;BMP_temperature;BMP_pressure;BME280_temperature;BME280_humidity;BME280_pressure;Samples;Min_cycle;Max_cycle;Signal;HPM_P1;HPM_P2
2021/12/20 00:01:58;;;;;;;24.25;13.45;;;3.30;99.90;;;2.50;100.00;98039.28;4983624;28;20030;-82
2021/12/20 00:04:24;;;;;;;23.90;14.35;;;3.40;99.90;;;2.28;100.00;98000.09;4966305;28;20042;-83
2021/12/20 00:06:50;;;;;;;23.75;14.52;;;3.40;99.90;;;2.53;100.00;98043.63;4969218;28;20360;-83
2021/12/20 00:09:16;;;;;;;25.10;14.85;;;3.30;99.90;;;2.52;100.00;98027.13;4969592;28;20557;-83
2021/12/20 00:11:42;;;;;;;22.77;13.88;;;3.40;99.90;;;2.46;100.00;98001.06;4984814;28;20049;-83
2021/12/20 00:14:08;;;;;;;23.83;15.05;;;3.40;99.90;;;2.51;100.00;98022.78;4969730;28;20156;-83
2021/12/20 00:16:34;;;;;;;25.40;14.10;;;3.40;99.90;;;2.46;100.00;97996.72;4985686;28;20041;-83
2021/12/20 00:18:59;;;;;;;29.52;16.75;;;3.40;99.90;;;2.46;100.00;98006.28;4997303;28;20041;-86
2021/12/20 00:21:25;;;;;;;24.35;15.18;;;3.40;99.90;;;2.47;100.00;98003.66;4989531;28;20460;-86
2021/12/20 00:23:51;;;;;;;26.15;16.00;;;3.40;99.90;;;2.52;100.00;98003.69;4986059;28;20091;-86
2021/12/20 00:26:17;;;;;;;27.42;16.35;;;3.40;99.90;;;2.48;100.00;98005.41;4989645;28;20590;-86
2021/12/20 00:28:43;;;;;;;25.30;14.88;;;3.40;99.90;;;2.46;100.00;97991.53;4977272;28;20037;-86
2021/12/20 00:31:08;;;;;;;28.63;15.95;;;3.40;99.90;;;2.45;100.00;97983.69;4988827;28;20029;-86
2021/12/20 00:33:34;;;;;;;25.63;14.98;;;3.40;99.90;;;2.59;100.00;97999.41;5005747;28;20307;-86
2021/12/20 00:36:04;;;;;;;25.95;15.07;;;3.40;99.90;;;2.64;100.00;97995.94;4976652;28;20051;-85
2021/12/20 00:41:14;;;;;;;26.88;15.73;;;3.40;99.90;;;2.59;100.00;97986.38;5004935;28;20099;-86
2021/12/20 00:43:43;;;;;;;22.10;13.93;;;3.40;99.90;;;2.66;100.00;98009.84;4989105;28;20395;-85
2021/12/20 00:46:09;;;;;;;22.38;14.45;;;3.50;99.90;;;2.61;100.00;97989.84;5002229;28;20113;-86
2021/12/20 00:48:35;;;;;;;25.48;15.32;;;3.50;99.90;;;2.37;100.00;97946.34;4988969;28;20022;-87
2021/12/20 00:51:01;;;;;;;23.98;14.25;;;3.50;99.90;;;2.55;100.00;97977.69;4986215;28;20042;-87
2021/12/20 00:53:27;;;;;;;24.23;14.57;;;3.50;99.90;;;2.63;100.00;97988.13;4977034;28;20030;-86
2021/12/20 00:55:52;;;;;;;22.20;14.15;;;3.50;99.90;;;2.54;100.00;97978.53;4989526;28;20038;-85
2021/12/20 00:58:18;;;;;;;22.15;13.50;;;3.50;99.90;;;2.70;100.00;97989.03;4987272;28;20038;-85
2021/12/20 01:00:51;;;;;;;22.42;13.77;;;3.50;99.90;;;2.64;100.00;97969.03;5001343;28;20372;-86
2021/12/20 01:03:18;;;;;;;23.02;14.52;;;3.60;99.90;;;2.65;100.00;97976.84;4988210;28;20076;-85
2021/12/20 01:05:45;;;;;;;21.63;13.05;;;3.50;99.90;;;2.75;100.00;98001.19;4973224;28;20057;-85
2021/12/20 01:08:11;;;;;;;21.08;13.35;;;3.50;99.90;;;2.63;100.00;97973.34;4969987;28;20026;-86
2021/12/20 01:10:43;;;;;;;23.88;13.57;;;3.50;99.90;;;2.63;100.00;97982.91;4987011;28;20033;-86
2021/12/20 01:13:09;;;;;;;19.88;12.45;;;3.50;99.90;;;2.66;100.00;97991.59;4986821;28;20019;-86
2021/12/20 01:15:45;;;;;;;21.08;12.27;;;3.50;99.90;;;2.76;100.00;97984.69;4988882;28;20077;-85
2021/12/20 01:18:11;;;;;;;20.20;13.43;;;3.50;99.90;;;2.71;100.00;97981.22;5003815;28;20030;-85
2021/12/20 01:20:37;;;;;;;20.85;12.48;;;3.50;99.90;;;2.73;100.00;97989.91;4973647;28;20032;-86
2021/12/20 01:23:04;;;;;;;25.98;13.95;;;3.50;99.90;;;2.71;100.00;97996.84;4972041;28;20033;-86
2021/12/20 01:25:30;;;;;;;21.17;13.48;;;3.50;99.90;;;2.64;100.00;97987.28;4972027;28;20022;-86
2021/12/20 01:27:56;;;;;;;21.00;13.38;;;3.50;99.90;;;2.46;100.00;97965.50;4986567;28;20121;-85
2021/12/20 01:30:25;;;;;;;20.83;12.35;;;3.40;99.90;;;2.43;100.00;97975.88;4986386;28;20161;-87
2021/12/20 01:32:51;;;;;;;20.58;12.82;;;3.30;99.90;;;2.48;100.00;97991.53;5012119;28;20041;-89
2021/12/20 01:35:19;;;;;;;23.60;13.45;;;3.30;99.90;;;2.38;100.00;97998.41;4996828;28;20037;-86
2021/12/20 01:37:45;;;;;;;20.30;12.45;;;3.20;99.90;;;2.25;100.00;97986.22;4988619;28;20084;-85
2021/12/20 01:40:15;;;;;;;23.80;14.23;;;3.10;99.90;;;2.20;100.00;97993.97;4987237;28;20038;-87
2021/12/20 01:42:42;;;;;;;23.13;14.02;;;3.00;99.90;;;2.10;100.00;97980.06;5003346;28;20053;-86
2021/12/20 01:45:18;;;;;;;23.40;13.23;;;2.90;99.90;;;2.16;100.00;97975.75;4972758;28;20026;-85
2021/12/20 01:47:49;;;;;;;22.60;12.85;;;2.90;99.90;;;1.94;100.00;97944.41;4972715;28;20030;-85
2021/12/20 01:52:43;;;;;;;22.98;13.98;;;2.90;99.90;;;2.14;100.00;97982.69;4986586;28;20065;-87
2021/12/20 01:55:14;;;;;;;23.98;13.65;;;2.90;99.90;;;2.13;100.00;97984.41;4986958;28;20578;-85
2021/12/20 01:57:40;;;;;;;22.95;13.77;;;2.90;99.90;;;2.01;100.00;97963.50;4974282;28;20113;-85
2021/12/20 02:00:18;;;;;;;21.98;13.55;;;2.90;99.90;;;2.09;100.00;97970.50;4999028;28;20128;-85
2021/12/20 02:02:44;;;;;;;24.65;13.93;;;2.90;99.90;;;2.08;100.00;97960.97;4988978;28;20650;-86
2021/12/20 02:05:19;;;;;;;21.85;13.68;;;2.90;99.90;;;2.25;100.00;97983.59;4989780;28;20072;-86
2021/12/20 02:10:14;;;;;;;22.48;13.23;;;3.00;99.90;;;2.12;100.00;97942.75;4985063;28;20579;-85
2021/12/20 02:12:40;;;;;;;22.75;13.23;;;3.10;99.90;;;2.17;100.00;97957.53;5001151;28;20133;-86
2021/12/20 02:15:07;;;;;;;24.98;14.35;;;3.10;99.90;;;2.32;100.00;97977.56;5003354;28;20038;-86
2021/12/20 02:17:33;;;;;;;20.92;13.02;;;3.10;99.90;;;2.25;100.00;97957.59;4972700;28;20026;-86
2021/12/20 02:20:00;;;;;;;24.60;14.32;;;3.10;99.90;;;2.32;100.00;97969.75;5005524;28;20522;-85
2021/12/20 02:22:26;;;;;;;25.05;14.45;;;3.10;99.90;;;2.17;100.00;97938.44;4967254;28;20021;-86
2021/12/20 02:24:52;;;;;;;22.45;13.25;;;3.10;99.90;;;2.25;100.00;97957.59;4985617;28;20091;-86
2021/12/20 02:27:19;;;;;;;24.38;14.23;;;3.10;99.90;;;2.27;100.00;97964.53;4985595;28;20044;-86
2021/12/20 02:30:01;;;;;;;24.55;14.05;;;3.10;99.90;;;2.35;100.00;97961.97;4997088;28;20548;-86
2021/12/20 02:37:56;;;;;;;24.67;14.13;;;3.20;99.90;;;2.35;100.00;97950.66;4990452;28;20527;-85
2021/12/20 02:40:22;;;;;;;23.95;14.15;;;3.20;99.90;;;2.32;100.00;97943.72;4969148;28;20438;-85
2021/12/20 02:42:51;;;;;;;26.10;14.25;;;3.20;99.90;;;2.30;100.00;97937.66;4971305;28;20022;-86
2021/12/20 02:45:17;;;;;;;23.83;13.68;;;3.20;99.90;;;2.40;100.00;97956.78;4973431;28;20407;-87
2021/12/20 02:47:46;;;;;;;23.30;12.85;;;3.20;99.90;;;2.36;100.00;97948.06;4984178;28;20049;-85
2021/12/20 02:50:13;;;;;;;22.30;12.50;;;3.20;99.90;;;2.33;100.00;97939.38;4987824;28;20025;-85
2021/12/20 02:52:41;;;;;;;20.77;12.32;;;3.20;99.90;;;2.37;100.00;97943.72;4969250;28;20652;-85
2021/12/20 02:55:09;;;;;;;25.13;12.98;;;3.20;99.90;;;2.37;100.00;97949.84;4985011;28;20505;-88
2021/12/20 02:57:38;;;;;;;22.13;12.73;;;3.20;99.90;;;2.34;100.00;97942.00;4984619;28;20041;-85
2021/12/20 03:00:09;;;;;;;21.33;11.68;;;3.20;99.90;;;2.28;100.00;97934.19;4983489;28;20042;-87
2021/12/20 03:02:36;;;;;;;23.35;12.80;;;3.20;99.90;;;2.38;100.00;97943.75;4972545;28;20442;-85
2021/12/20 03:05:03;;;;;;;20.58;12.10;;;3.20;99.90;;;2.28;100.00;97919.41;4987373;28;20545;-85
2021/12/20 03:07:31;;;;;;;21.88;12.77;;;3.20;99.90;;;2.29;100.00;97925.50;4987241;28;20076;-86
2021/12/20 03:10:02;;;;;;;20.00;11.73;;;3.20;99.90;;;2.36;100.00;97927.25;4988096;28;20095;-86
2021/12/20 03:12:31;;;;;;;19.55;12.20;;;3.20;99.90;;;2.32;100.00;97922.03;4977786;28;20479;-85
2021/12/20 03:15:04;;;;;;;22.67;12.65;;;3.30;99.90;;;2.58;100.00;97948.16;4987522;28;20512;-86
2021/12/20 03:17:30;;;;;;;22.92;12.52;;;3.30;99.90;;;2.53;100.00;97950.78;4986004;28;20037;-85
2021/12/20 03:19:56;;;;;;;20.90;12.23;;;3.30;99.90;;;2.50;100.00;97949.88;4985848;28;20026;-86
2021/12/20 03:22:21;;;;;;;20.42;11.70;;;3.30;99.90;;;2.42;100.00;97936.81;4985604;28;20454;-87
2021/12/20 03:24:48;;;;;;;21.45;11.23;;;3.30;99.90;;;2.32;100.00;97938.53;4985279;28;20488;-85
2021/12/20 03:27:14;;;;;;;17.08;10.70;;;3.20;99.90;;;2.22;100.00;97934.13;4982130;28;20037;-85
2021/12/20 03:29:40;;;;;;;18.70;11.77;;;3.20;99.90;;;2.26;100.00;97949.78;4986198;28;20032;-85
2021/12/20 03:32:06;;;;;;;19.75;10.98;;;3.10;99.90;;;2.08;100.00;97936.66;4989433;28;20121;-85
2021/12/20 03:34:33;;;;;;;20.33;12.43;;;3.00;99.90;;;2.05;100.00;97945.31;4991029;28;20029;-85
2021/12/20 03:36:58;;;;;;;23.98;12.27;;;3.00;99.90;;;1.95;100.00;97951.34;4982004;28;20034;-85
2021/12/20 03:39:24;;;;;;;23.25;12.80;;;2.90;99.90;;;2.18;100.00;97963.63;4988135;28;20041;-87
2021/12/20 03:41:50;;;;;;;20.77;12.85;;;2.90;99.90;;;2.09;100.00;97948.81;4986729;28;20042;-87
2021/12/20 03:44:16;;;;;;;23.73;12.93;;;3.00;99.90;;;1.99;100.00;97944.41;5000027;28;20030;-87
2021/12/20 03:46:42;;;;;;;20.75;12.20;;;3.00;99.90;;;1.73;100.00;97890.53;5005582;28;20022;-85
2021/12/20 03:49:08;;;;;;;22.38;12.85;;;3.00;99.90;;;2.04;100.00;97938.38;4986649;28;20030;-85
2021/12/20 03:51:35;;;;;;;24.30;13.65;;;3.00;99.90;;;2.09;100.00;97938.41;4988945;28;20178;-84
2021/12/20 03:54:02;;;;;;;24.55;13.30;;;3.00;99.90;;;2.16;100.00;97952.34;5025572;28;20025;-88
2021/12/20 03:56:28;;;;;;;24.27;13.75;;;3.00;99.90;;;2.14;100.00;97941.06;4993873;28;20642;-85
2021/12/20 03:58:53;;;;;;;27.88;14.75;;;3.00;99.90;;;2.20;100.00;97941.94;5002428;28;20117;-85
2021/12/20 04:01:19;;;;;;;24.45;13.20;;;3.00;99.90;;;2.28;100.00;97950.66;4974331;28;20022;-85
2021/12/20 04:03:45;;;;;;;22.92;13.23;;;3.10;99.90;;;2.16;100.00;97928.91;4988769;28;20471;-86
2021/12/20 04:06:13;;;;;;;27.60;14.25;;;3.10;99.90;;;2.28;100.00;97955.00;4986568;28;20026;-85
2021/12/20 04:08:42;;;;;;;30.08;14.40;;;3.10;99.90;;;2.12;100.00;97937.53;4987996;28;20042;-86
2021/12/20 04:11:08;;;;;;;29.00;15.18;;;3.10;99.90;;;2.16;100.00;97941.91;4978024;28;20037;-85
2021/12/20 04:13:35;;;;;;;27.65;13.50;;;3.10;99.90;;;2.13;100.00;97931.50;4987993;28;20123;-85
2021/12/20 04:16:01;;;;;;;28.20;15.43;;;3.00;99.90;;;2.28;100.00;97953.25;5002258;28;20048;-87
2021/12/20 04:18:29;;;;;;;25.73;14.98;;;3.10;99.90;;;2.32;100.00;97956.75;4967710;28;20026;-85
2021/12/20 04:20:54;;;;;;;29.17;14.63;;;3.10;99.90;;;2.23;100.00;97951.50;4988009;28;20098;-85
2021/12/20 04:23:20;;;;;;;32.00;16.00;;;3.10;99.90;;;2.07;100.00;97930.59;4988260;28;20022;-86
2021/12/20 04:25:47;;;;;;;29.33;15.50;;;3.10;99.90;;;1.99;100.00;97918.41;4988743;28;20033;-85
2021/12/20 04:28:13;;;;;;;29.45;15.52;;;3.10;99.90;;;2.04;100.00;97935.78;5003518;28;20026;-86
2021/12/20 04:30:38;;;;;;;27.80;14.57;;;3.00;99.90;;;2.18;100.00;97953.22;5005357;28;20027;-85
2021/12/20 04:33:04;;;;;;;23.67;14.23;;;3.00;99.90;;;2.17;100.00;97947.13;4987897;28;20427;-85
2021/12/20 04:35:30;;;;;;;26.50;14.75;;;3.00;99.90;;;2.10;100.00;97930.63;4989825;28;20025;-85
2021/12/20 04:37:58;;;;;;;26.88;15.27;;;3.00;99.90;;;1.96;100.00;97901.06;4989549;28;20400;-86
2021/12/20 04:40:24;;;;;;;28.25;14.60;;;3.00;99.90;;;2.16;100.00;97939.31;5006606;28;20080;-87
2021/12/20 04:42:57;;;;;;;27.00;14.32;;;3.00;99.90;;;2.13;100.00;97939.28;4991068;28;20080;-85
2021/12/20 04:45:25;;;;;;;25.80;14.43;;;3.00;99.90;;;2.19;100.00;97945.41;5000849;28;20038;-86
2021/12/20 04:47:52;;;;;;;25.42;14.43;;;3.00;99.90;;;2.22;100.00;97950.59;4988043;28;20022;-85
2021/12/20 04:50:18;;;;;;;24.73;13.23;;;3.00;99.90;;;2.21;100.00;97953.22;4991211;28;20029;-86
2021/12/20 04:52:44;;;;;;;26.20;14.25;;;3.00;99.90;;;2.22;100.00;97954.94;4987797;28;20104;-85
2021/12/20 04:55:12;;;;;;;26.58;14.18;;;3.00;99.90;;;2.22;100.00;97957.56;4972475;28;20042;-85
2021/12/20 04:57:40;;;;;;;26.42;14.55;;;3.00;99.90;;;2.25;100.00;97957.59;4988120;28;20434;-85
2021/12/20 05:00:13;;;;;;;23.90;13.68;;;3.10;99.90;;;2.28;100.00;97960.22;5005345;28;20037;-85
2021/12/20 05:02:39;;;;;;;24.55;14.02;;;3.10;99.90;;;2.26;100.00;97956.69;4988507;28;20083;-87
2021/12/20 05:05:06;;;;;;;29.60;14.88;;;3.10;99.90;;;2.24;100.00;97951.50;4972088;28;20025;-86
2021/12/20 05:07:32;;;;;;;28.17;14.38;;;3.10;99.90;;;2.31;100.00;97964.53;4988767;28;20116;-85
2021/12/20 05:10:01;;;;;;;28.23;13.82;;;3.10;99.90;;;2.26;100.00;97951.50;4987323;28;20030;-85
2021/12/20 05:12:27;;;;;;;25.33;13.85;;;3.10;99.90;;;2.33;100.00;97950.66;4973992;28;20613;-86
2021/12/20 05:14:53;;;;;;;25.17;13.10;;;3.20;99.90;;;2.28;100.00;97934.19;4973939;28;20048;-86
2021/12/20 05:17:18;;;;;;;24.33;12.55;;;3.20;99.90;;;2.27;100.00;97933.28;4973142;28;20213;-85
2021/12/20 05:19:44;;;;;;;25.42;13.60;;;3.20;99.90;;;2.33;100.00;97942.84;4986811;28;20139;-85
2021/12/20 05:22:11;;;;;;;24.52;13.38;;;3.20;99.90;;;2.36;100.00;97942.00;4986696;28;20054;-85
2021/12/20 05:24:38;;;;;;;24.75;13.63;;;3.20;99.90;;;2.35;100.00;97940.25;4972499;28;20026;-87
2021/12/20 05:27:04;;;;;;;25.15;13.95;;;3.20;99.90;;;2.33;100.00;97944.59;4989025;28;20033;-85
2021/12/20 05:29:30;;;;;;;26.33;14.05;;;3.20;99.90;;;2.40;100.00;97948.97;4987573;28;20084;-85
2021/12/20 05:31:57;;;;;;;29.10;14.85;;;3.30;99.90;;;2.39;100.00;97939.44;4969541;28;20455;-85
2021/12/20 05:34:22;;;;;;;27.00;14.40;;;3.20;99.90;;;2.29;100.00;97928.94;4987681;28;20061;-85
2021/12/20 05:36:48;;;;;;;29.10;15.00;;;3.30;99.90;;;2.37;100.00;97936.81;4985799;28;20054;-85
2021/12/20 05:39:14;;;;;;;26.60;13.57;;;3.30;99.90;;;2.27;100.00;97917.66;4989918;28;20064;-85
2021/12/20 05:41:40;;;;;;;25.42;13.65;;;3.30;99.90;;;2.36;100.00;97929.00;4986087;28;20069;-85
2021/12/20 05:44:06;;;;;;;26.08;15.13;;;3.30;99.90;;;2.46;100.00;97949.00;4981537;28;20041;-88
2021/12/20 05:46:33;;;;;;;29.88;14.55;;;3.40;99.90;;;2.36;100.00;97929.84;5004723;28;20030;-85
2021/12/20 05:48:58;;;;;;;25.23;13.05;;;3.30;99.90;;;2.50;100.00;97955.09;5008252;28;20164;-85
2021/12/20 05:51:25;;;;;;;26.25;14.18;;;3.30;99.90;;;2.60;100.00;97967.25;4990899;28;20112;-86
2021/12/20 05:53:51;;;;;;;27.05;14.40;;;3.40;99.90;;;2.62;100.00;97978.56;4971742;28;20038;-86
2021/12/20 05:56:17;;;;;;;25.73;13.27;;;3.40;99.90;;;2.53;100.00;97971.59;4972640;28;20084;-85
2021/12/20 05:58:42;;;;;;;20.73;11.73;;;3.40;99.90;;;2.61;100.00;97988.09;4973787;28;20488;-86
2021/12/20 06:01:08;;;;;;;24.02;13.07;;;3.40;99.90;;;2.54;100.00;97981.13;4988867;28;20030;-87
2021/12/20 06:03:34;;;;;;;22.05;12.77;;;3.40;99.90;;;2.46;100.00;97988.91;4969354;28;20045;-86
2021/12/20 06:06:00;;;;;;;24.27;13.32;;;3.30;99.90;;;2.42;100.00;97989.78;4968911;28;20095;-85
2021/12/20 06:08:25;;;;;;;25.08;13.80;;;3.30;99.90;;;2.38;100.00;97974.97;4973540;28;20978;-87
2021/12/20 06:10:51;;;;;;;25.45;13.30;;;3.20;99.90;;;2.30;100.00;97961.06;4996075;28;20024;-88
2021/12/20 06:13:17;;;;;;;22.67;13.13;;;3.20;99.90;;;2.31;100.00;97960.19;4991361;28;20017;-85
2021/12/20 06:15:42;;;;;;;26.23;13.85;;;3.20;99.90;;;2.38;100.00;97972.38;4987069;28;20026;-86
2021/12/20 06:18:08;;;;;;;22.75;12.70;;;3.20;99.90;;;2.32;100.00;97948.94;4987867;28;20514;-85
2021/12/20 06:20:34;;;;;;;25.05;13.10;;;3.20;99.90;;;2.46;100.00;97978.50;4996321;28;20034;-85
2021/12/20 06:23:00;;;;;;;23.80;13.65;;;3.20;99.90;;;2.35;100.00;97972.38;4986352;28;20423;-86
2021/12/20 06:25:26;;;;;;;23.10;12.20;;;3.20;99.90;;;2.25;100.00;97955.84;4984428;28;20038;-86
2021/12/20 06:27:53;;;;;;;24.08;12.98;;;3.20;99.90;;;2.29;100.00;97960.19;4985903;28;20029;-85
2021/12/20 06:30:19;;;;;;;22.77;11.88;;;3.20;99.90;;;2.35;100.00;97971.50;4987418;28;20026;-86
2021/12/20 06:32:46;;;;;;;22.23;12.93;;;3.20;99.90;;;2.44;100.00;97981.94;4970258;28;20195;-86
2021/12/20 06:35:15;;;;;;;21.75;11.98;;;3.20;99.90;;;2.35;100.00;97967.19;4970974;28;20147;-86
2021/12/20 06:37:47;;;;;;;20.92;12.15;;;3.20;99.90;;;2.21;100.00;97940.22;5002995;28;20144;-85
2021/12/20 06:40:13;;;;;;;20.48;10.98;;;3.20;99.90;;;2.32;100.00;97967.16;4998475;28;20052;-85
2021/12/20 06:42:39;;;;;;;22.92;11.75;;;3.20;99.90;;;2.38;100.00;97976.72;4990345;28;20311;-85
2021/12/20 06:45:06;;;;;;;23.77;12.35;;;3.20;99.90;;;2.49;100.00;97980.25;4983567;28;20034;-85
2021/12/20 06:47:34;;;;;;;24.70;12.15;;;3.30;99.90;;;2.39;100.00;97968.06;4986330;28;20503;-86
2021/12/20 06:50:02;;;;;;;23.27;12.00;;;3.30;99.90;;;2.50;100.00;97988.94;4999118;28;20057;-87
2021/12/20 06:52:28;;;;;;;22.70;13.18;;;3.30;99.90;;;2.53;100.00;97982.00;4982669;28;20448;-85
2021/12/20 06:54:54;;;;;;;25.75;13.07;;;3.30;99.90;;;2.44;100.00;97971.53;4984736;28;20471;-85
2021/12/20 06:57:20;;;;;;;25.42;12.80;;;3.30;99.90;;;2.45;100.00;97971.53;5000886;28;20067;-86
2021/12/20 06:59:46;;;;;;;25.55;13.23;;;3.30;99.90;;;2.49;100.00;97982.84;4981235;28;20030;-86
2021/12/20 07:02:12;;;;;;;25.83;13.48;;;3.30;99.90;;;2.34;100.00;97965.44;4981973;28;20030;-86
2021/12/20 07:04:38;;;;;;;26.10;12.68;;;3.30;99.90;;;2.53;100.00;97984.63;4985462;28;20060;-87
2021/12/20 07:07:03;;;;;;;23.75;12.23;;;3.30;99.90;;;2.55;100.00;97987.19;4982837;28;20022;-86
2021/12/20 07:09:29;;;;;;;28.00;13.55;;;3.40;99.90;;;2.58;100.00;97987.22;4983062;28;20127;-85
2021/12/20 07:11:55;;;;;;;28.88;13.82;;;3.40;99.90;;;2.55;100.00;97988.09;4998852;28;20670;-85
2021/12/20 07:14:26;;;;;;;23.35;13.35;;;3.40;99.90;;;2.55;100.00;97985.50;4998967;28;20032;-86
2021/12/20 07:16:52;;;;;;;25.63;13.65;;;3.40;99.90;;;2.44;100.00;97967.22;4999864;28;20504;-87
2021/12/20 07:19:17;;;;;;;27.17;14.45;;;3.50;99.90;;;2.70;100.00;98008.13;4969507;28;20033;-85
2021/12/20 07:21:43;;;;;;;22.10;12.80;;;3.50;99.90;;;2.68;100.00;98002.91;4982900;28;20403;-85
2021/12/20 07:24:10;;;;;;;24.15;13.32;;;3.50;99.90;;;2.58;100.00;97993.28;4969634;28;20111;-88
2021/12/20 07:26:35;;;;;;;24.67;13.50;;;3.50;99.90;;;2.62;100.00;97996.78;4982785;28;20033;-86
2021/12/20 07:29:02;;;;;;;25.10;13.48;;;3.50;99.90;;;2.53;100.00;97981.13;4985415;28;20037;-86
2021/12/20 07:31:27;;;;;;;22.70;13.25;;;3.40;99.90;;;2.61;100.00;98003.72;4984386;28;20042;-85
2021/12/20 07:33:53;;;;;;;26.40;13.27;;;3.40;99.90;;;2.54;100.00;97993.28;4983479;28;20749;-85
2021/12/20 07:36:22;;;;;;;32.63;15.40;;;3.40;99.90;;;2.63;100.00;98002.00;4977401;28;20045;-85
2021/12/20 07:38:49;;;;;;;25.60;13.93;;;3.40;99.90;;;2.70;100.00;98021.13;4998302;28;20037;-85
2021/12/20 07:41:21;;;;;;;28.58;14.75;;;3.40;99.90;;;2.72;100.00;98024.63;4982414;28;20025;-85
2021/12/20 07:43:48;;;;;;;;;;;3.50;99.90;;;2.64;100.00;98021.13;4985201;28;20040;-85
2021/12/20 07:46:16;;;;;;;29.55;14.05;;;3.50;99.90;;;2.67;100.00;98028.94;4967553;28;19953;-85
2021/12/20 07:48:42;;;;;;;26.35;13.18;;;3.50;99.90;;;2.56;100.00;98005.44;4984323;28;20535;-86
2021/12/20 07:51:07;;;;;;;28.60;14.38;;;3.50;99.90;;;2.72;100.00;98027.22;4983163;28;20038;-86
2021/12/20 07:53:33;;;;;;;25.30;12.95;;;3.50;99.90;;;2.62;100.00;98002.00;4967331;28;20034;-86
2021/12/20 07:55:59;;;;;;;23.80;13.75;;;3.50;99.90;;;2.78;100.00;98027.25;4985819;28;20103;-85
2021/12/20 07:58:25;;;;;;;24.42;13.70;;;3.60;99.90;;;2.81;100.00;98022.03;5001409;28;20037;-85
2021/12/20 08:00:51;;;;;;;27.15;14.60;;;3.60;99.90;;;2.83;100.00;98022.06;4986907;28;20034;-85
2021/12/20 08:03:17;;;;;;;27.42;13.98;;;3.70;99.90;;;2.85;100.00;98029.03;4986165;28;20414;-85
2021/12/20 08:05:44;;;;;;;24.92;13.27;;;3.70;99.90;;;2.87;100.00;98015.97;4988540;28;20029;-85
2021/12/20 08:08:09;;;;;;;22.63;12.68;;;3.70;99.90;;;2.81;100.00;98013.38;4985403;28;20654;-86
2021/12/20 08:10:35;;;;;;;25.65;13.48;;;3.70;99.90;;;2.92;100.00;98018.63;4985460;28;20085;-85
2021/12/20 08:13:02;;;;;;;24.63;12.77;;;3.70;99.90;;;2.84;100.00;98013.38;5003414;28;20044;-85
2021/12/20 08:15:28;;;;;;;23.30;12.20;;;3.70;99.90;;;3.02;100.00;98034.28;4982197;28;20419;-85
2021/12/20 08:17:55;;;;;;;24.80;13.50;;;3.80;99.90;;;2.92;100.00;98008.19;4987856;28;20451;-85
2021/12/20 08:20:22;;;;;;;28.05;14.77;;;3.80;99.90;;;2.97;100.00;98015.16;4980028;28;20048;-86
2021/12/20 08:22:48;;;;;;;29.05;13.32;;;3.80;99.90;;;2.97;100.00;98024.72;4988909;28;20040;-86
2021/12/20 08:25:16;;;;;;;23.95;13.10;;;3.80;99.90;;;3.07;100.00;98034.31;4985692;28;20527;-87
2021/12/20 08:27:42;;;;;;;22.80;13.38;;;3.80;99.90;;;3.05;100.00;98017.78;4986837;28;20049;-85
2021/12/20 08:30:09;;;;;;;21.52;11.95;;;3.90;99.90;;;3.16;100.00;98031.72;4985944;28;20493;-86
2021/12/20 08:32:38;;;;;;;20.48;10.88;;;3.90;99.90;;;3.14;100.00;98017.81;4988353;28;20045;-86
2021/12/20 08:35:08;;;;;;;18.25;10.40;;;4.00;99.90;;;3.21;100.00;98021.28;4987938;28;20116;-86
2021/12/20 08:37:35;;;;;;;18.73;11.50;;;4.10;99.90;;;3.37;100.00;98025.66;4984022;28;20044;-85
2021/12/20 08:40:03;;;;;;;21.38;12.65;;;4.10;99.90;;;3.31;100.00;98009.16;4987173;28;20483;-86
2021/12/20 08:42:28;;;;;;;21.60;12.57;;;4.20;99.90;;;3.39;100.00;98010.91;4987258;28;20728;-87
2021/12/20 08:44:54;;;;;;;20.95;12.07;;;4.30;99.90;;;3.34;100.00;98006.53;5005795;28;20044;-85
2021/12/20 08:47:20;;;;;;;19.08;10.75;;;4.30;99.90;;;3.57;100.00;98041.38;4985354;28;20507;-86
2021/12/20 08:49:46;;;;;;;19.88;10.48;;;4.30;99.90;;;3.49;100.00;98037.00;4988701;28;20062;-86
2021/12/20 08:52:12;;;;;;;19.58;10.93;;;4.30;99.90;;;3.56;100.00;98042.22;4987082;28;20061;-87
2021/12/20 08:54:38;;;;;;;17.50;10.05;;;4.40;99.90;;;3.61;100.00;98045.72;4973682;28;20061;-86
2021/12/20 08:57:05;;;;;;;19.55;11.38;;;4.40;99.90;;;3.60;100.00;98032.66;4972651;28;20699;-86
2021/12/20 08:59:31;;;;;;;23.85;12.65;;;4.40;99.90;;;3.69;100.00;98042.25;4986395;28;20030;-86
2021/12/20 09:01:59;;;;;;;20.00;11.55;;;4.50;99.90;;;3.72;100.00;98047.47;4986625;28;20026;-85
2021/12/20 09:04:25;;;;;;;23.48;11.70;;;4.50;99.90;;;3.78;100.00;98060.50;4985671;28;20025;-85
2021/12/20 09:06:50;;;;;;;26.10;13.07;;;4.50;99.90;;;3.73;100.00;98046.59;4985020;28;20381;-85
2021/12/20 09:09:16;;;;;;;24.35;13.63;;;4.50;99.90;;;3.64;100.00;98026.56;4983267;28;20376;-86
2021/12/20 09:11:43;;;;;;;22.40;12.82;;;4.60;99.90;;;3.83;100.00;98048.34;4972575;28;20034;-86
2021/12/20 09:14:09;;;;;;;25.45;13.77;;;4.60;99.90;;;3.99;100.00;98065.72;4970670;28;20124;-85
2021/12/20 09:16:34;;;;;;;25.98;13.80;;;4.70;99.90;;;3.94;100.00;98051.81;5001407;28;20473;-87
2021/12/20 09:19:00;;;;;;;27.42;14.23;;;4.70;99.90;;;3.77;100.00;98030.09;4987129;28;20042;-86
2021/12/20 09:21:26;;;;;;;27.58;15.65;;;4.80;99.90;;;3.80;100.00;98040.50;4986826;28;20041;-86
2021/12/20 09:23:53;;;;;;;30.40;15.30;;;4.70;99.90;;;3.93;100.00;98065.75;4983174;28;20033;-85
2021/12/20 09:26:20;;;;;;;26.58;15.13;;;4.70;99.90;;;3.92;100.00;98064.00;4985662;28;20213;-86
2021/12/20 09:28:45;;;;;;;27.05;15.85;;;4.70;99.90;;;3.93;100.00;98057.91;4988464;28;20049;-86
2021/12/20 09:31:11;;;;;;;25.90;14.85;;;4.70;99.90;;;3.89;100.00;98043.09;4982513;28;20084;-86
2021/12/20 09:33:37;;;;;;;30.20;15.07;;;4.80;99.90;;;4.06;100.00;98074.44;5001871;28;20022;-87
2021/12/20 09:36:05;;;;;;;32.60;16.80;;;4.80;99.90;;;4.16;100.00;98075.28;5002793;28;20026;-86
2021/12/20 09:38:31;;;;;;;28.88;15.55;;;4.90;99.90;;;4.07;100.00;98049.19;4986160;28;20687;-87
2021/12/20 09:43:54;;;;;;;30.55;15.95;;;4.90;99.90;;;4.21;100.00;98068.34;4989681;28;20120;-86
2021/12/20 09:46:24;;;;;;;28.70;14.70;;;5.00;99.90;;;4.27;100.00;98064.84;5000220;28;20385;-85
2021/12/20 09:48:50;;;;;;;31.88;15.90;;;5.10;99.90;;;4.40;100.00;98084.84;4967811;28;20037;-86
2021/12/20 09:51:17;;;;;;;31.45;16.02;;;5.10;99.90;;;4.49;100.00;98081.38;4984261;28;20087;-86
2021/12/20 09:53:43;;;;;;;31.95;16.17;;;5.20;99.90;;;4.19;100.00;98025.69;4986554;28;20030;-86
2021/12/20 09:56:10;;;;;;;31.30;15.85;;;5.30;99.90;;;4.40;100.00;98048.28;4986448;28;20044;-85
2021/12/20 09:58:39;;;;;;;31.63;16.20;;;5.20;99.90;;;4.44;100.00;98063.09;5003622;28;20167;-85
2021/12/20 10:01:09;;;;;;;30.92;16.60;;;5.30;99.90;;;4.57;100.00;98076.97;4985775;28;20080;-86
2021/12/20 10:03:36;;;;;;;30.00;14.95;;;5.30;99.90;;;4.52;100.00;98079.63;4970010;28;20029;-85
2021/12/20 10:06:03;;;;;;;32.33;16.88;;;5.30;99.90;;;4.47;100.00;98070.03;4988217;28;20051;-85
2021/12/20 10:08:34;;;;;;;34.65;17.30;;;5.30;99.90;;;4.38;100.00;98037.84;4985713;28;20550;-85
2021/12/20 10:11:25;;;;;;;36.72;17.80;;;5.30;99.90;;;4.55;100.00;98068.28;4984723;28;20029;-86
2021/12/20 10:14:14;;;;;;;37.72;18.60;;;5.30;99.90;;;4.51;100.00;98066.56;4986108;28;20133;-86
2021/12/20 10:16:43;;;;;;;29.00;15.30;;;5.30;99.90;;;4.35;100.00;98030.00;4997702;28;20060;-86
2021/12/20 10:19:32;;;;;;;34.05;16.73;;;5.30;99.90;;;4.65;100.00;98059.56;4982937;28;20048;-85
2021/12/20 10:21:58;;;;;;;32.10;16.48;;;5.40;99.90;;;4.59;100.00;98043.88;4984155;28;20028;-86
2021/12/20 10:24:36;;;;;;;31.05;16.27;;;5.40;99.90;;;4.78;100.00;98066.47;4979602;28;20442;-86
2021/12/20 10:27:02;;;;;;;30.98;16.65;;;5.50;99.90;;;4.89;100.00;98086.47;4969980;28;20036;-85
2021/12/20 10:29:29;;;;;;;33.45;17.00;;;5.60;99.90;;;4.81;100.00;98067.34;4971085;28;20284;-88